Waterford, Wisconsin
Current Conditions -  °F | °C
As of 12:55 PM on Monday 20 Oct 2014 (Local Time) from KBUU Reporting Station
Scattered Clouds Scattered Clouds  
Wind Chill: 59°   Ceiling: Unl
Heat Index: 59°   Visibility: 10mi
Dew Point: 44°   Wind: 17mph
Humidity: 58%   Direction: 320°NW
Pressure: 29.85"   Gusts: NA
Location:  42.76°N, 88.21°W
Report Text: KBUU 201755Z AUTO 32015KT 10SM SCT034 15/07 A2985 RMK AO2 T01510068 10154 20060
Loading
Personal Weather Stations






























Interactive Weather Map
Tropical Storm Tracking
New forecast layout! Learn more

10-Day Weather Forecast

Advertisements
Track Severe Weather on mobile